Aviation WX Report

Aviation WX Report (1)

                                                                                                   GENERAL AVIATION FORECAST ST. MAARTEN

 

DATE ISSUED: November 24, 2017 VALID TIME: 12:00 -24:00Z

 

 

AREA OF COVERAGE: TNCM TMA (Bounded by 18.25N 063.39W, 18.25N 062.51W, 17.47N 062.22W, 17.26N 062.53W, 17.36N 063.39W AND 18.25N 063.39W)

LEVELS OF COVERAGE: MSL TO FL100

SIG. WX: ISOL SHRA

SIG. CLDS: BKN TCU BASE 1100-1800 FT ABOVE FL100

SFC. VIS: 10 KM, 7 KM IN SHRA

FCST WNDS/TEMP ALOFT: 24/18:00z

LEVEL

WINDS

TEMP

0500 FT

150/10KT

+26

1000 FT

140/15KT

+24

2000 FT

140/15KT

+22

3000 FT

150/15KT

+20

FL050

150/15KT

+18

FL080

110/05KT

 

FL100

 90/10KT

 

FZL: ABOVE FL100 SPECIAL FEATURES: NONE. TAF:

 

TNCM 241120Z 2412/2512 09004KT P6SM VCSH SCT018 BKN035 FM241450 11009KT P6SM VCSH SCT018 BKN035 FM241450 11009KT P6SM FEW022 SCT050

FM241800 12012KT P6SM VCSH SCT022 SCT035

 

 FORECASTER: Gordon

                                             Meteorological Department St. Maarten

 

 

17.36N 63.40W and 18.30N 63.40W).
Levels of Coverage: MSL to FL100.
SIG WX: ISOL SHRA.
SIG CLDS: FEW TCU 1000 - 1500FT AND TOPS ABV FL100.
SCT/ BKN LYR SC/AC 2000 - 3500FT AND TOPS ABV FL100.
SFC VIS: 10+ KM, 3 - 7 KM IN SHRA.
FCST WNDS/TEMP ALOFT: 14/ 18:00Z
0500 FT.. 200/10KT +26 FL050.....220/10KT +16
1000 FT.. 200/10KT +24 FL080.....220/05KT +11
2000 FT.. 210/15KT +22 FL100.....200/10KT +08
3000 FT.. 210/15KT +19
FZL: ABV FL100.
SPECIAL FEATURES:
NONE.
TAFS:
TAF TNCM 141200Z 1412/1512 14012KT P6SM VCSH BKN018 BKN035
FM141800 21008KT P6SM VCSH SCT022 SCT050=
Forecaster: DJF.

Save

Save

Save

Save

Save

Save

Save

Save

Save

Save

Save

Save

Save

Save

Save

Save

Save

Save

Save

Save

Save

Save

Save

Save

Save

Save

Save

Save

Save

Save

Save

Save

Save

Save

Save

Save

Save

Save

Save

Save

Save

Save

Save

Save

Save

Save

Save

Save

Save

Save

Save

Save

Save

Save

Save

Save

Save

Save

Save

Save

Save

Save

Save

Save

Save

Save

Save

Save

Save

Save

Save

Save

Save

Save

Save

Save

Save

Save

Save

Save

Save

Save

Save

Save

Save

Save

Save

Save

Save

Save

Save

Save

Save

Save

Save

Save

Save

Save

Save

Save

Save

Save

Save

Save

Save

Save

Save

Save

Save

Save

Save

Save

Save

Save

Save

Save

Save

Save

Save

Save

Save

Save

Save

Save

Save

Save

Save

Save

Save

Save

Save

Save

Save

Save

Save

Save

Save

Save

Save

International News

Go to top